Terminal Aerodrome Forecast
Issued by NWS

Home | Current Version | Previous Version | Text Only | Print | Product List | Glossary On
Versions: 1 2 3 4 5 6 7 8 9 10 11 12 13 14 15
000
FTUS43 KIND 232325
TAFHUF
TAF
KHUF 232325Z 2400/2424 13004KT P6SM SCT040 BKN100
     FM240600 16005KT P6SM BKN040
     FM241000 18007KT P6SM VCSH OVC035
      TEMPO 2412/2416 5SM -SHRA BR OVC025
     FM241700 21012G18KT P6SM VCTS BKN040CB=

USA.gov is the U.S. government's official web portal to all federal, state and local government web resources and services.